Time;durP1;ratioP1;P1;durP2;ratioP2;P2;SDS_P1;SDS_P2;PMS_P1;PMS_P2;Temp;Humidity;BMP_temperature;BMP_pressure;BME280_temperature;BME280_humidity;BME280_pressure;Samples;Min_cycle;Max_cycle;Signal;HPM_P1;HPM_P2
2021/01/22 00:01:23;;;;;;;11.50;6.77;;;-1.90;99.90;;;;;;6182176;28;20675;-78
2021/01/22 00:04:25;;;;;;;8.57;4.73;;;-1.90;99.90;;;;;;6184457;28;21101;-78
2021/01/22 00:07:27;;;;;;;8.50;5.03;;;-1.90;99.90;;;;;;6182680;28;20228;-78
2021/01/22 00:10:28;;;;;;;7.73;4.00;;;-1.90;99.90;;;;;;6182512;28;20275;-78
2021/01/22 00:13:31;;;;;;;6.03;3.60;;;-1.90;99.90;;;;;;6169932;28;20196;-78
2021/01/22 00:16:32;;;;;;;8.30;3.20;;;-1.90;99.90;;;;;;6206507;28;20239;-77
2021/01/22 00:19:34;;;;;;;6.90;3.20;;;-1.90;99.90;;;;;;6206941;28;20229;-78
2021/01/22 00:22:36;;;;;;;9.40;5.10;;;-1.90;99.90;;;;;;6207876;28;20261;-78
2021/01/22 00:25:38;;;;;;;5.60;3.10;;;-1.90;99.90;;;;;;6221583;28;20192;-79
2021/01/22 00:28:40;;;;;;;3.97;2.53;;;-1.80;99.90;;;;;;6182409;28;20279;-78
2021/01/22 00:31:42;;;;;;;4.50;2.70;;;-1.80;99.90;;;;;;6182434;28;20217;-78
2021/01/22 00:34:43;;;;;;;4.97;3.10;;;-1.80;99.90;;;;;;6185006;28;20224;-78
2021/01/22 00:37:45;;;;;;;7.10;4.07;;;-1.80;99.90;;;;;;6195212;28;20216;-78
2021/01/22 00:40:47;;;;;;;8.93;4.10;;;-1.80;99.90;;;;;;6208961;28;20209;-78
2021/01/22 00:43:49;;;;;;;5.47;3.50;;;-1.80;99.90;;;;;;6208661;28;20347;-78
2021/01/22 00:46:53;;;;;;;6.90;3.40;;;-1.80;99.90;;;;;;6191313;28;20211;-78
2021/01/22 00:50:04;;;;;;;4.93;3.17;;;-1.80;99.90;;;;;;6188347;28;20225;-78
2021/01/22 00:53:07;;;;;;;6.27;2.93;;;-1.80;99.90;;;;;;6199367;28;20215;-78
2021/01/22 00:56:09;;;;;;;5.43;2.37;;;-1.70;99.90;;;;;;6183227;28;20213;-78
2021/01/22 00:59:18;;;;;;;4.13;2.33;;;-1.70;99.90;;;;;;6184383;28;20231;-78
2021/01/22 01:02:20;;;;;;;3.73;2.47;;;-1.70;99.90;;;;;;6185494;28;20216;-78
2021/01/22 01:05:22;;;;;;;4.13;2.57;;;-1.60;99.90;;;;;;6183757;28;20208;-78
2021/01/22 01:08:25;;;;;;;7.40;3.00;;;-1.60;99.90;;;;;;6199704;28;20861;-78
2021/01/22 01:11:39;;;;;;;6.77;3.33;;;-1.50;99.90;;;;;;6183760;28;20205;-78
2021/01/22 01:14:55;;;;;;;5.27;2.80;;;-1.40;99.90;;;;;;6216163;28;20232;-77
2021/01/22 01:18:07;;;;;;;5.87;3.10;;;-1.40;99.90;;;;;;6209295;28;20228;-78
2021/01/22 01:21:09;;;;;;;4.37;3.00;;;-1.30;99.90;;;;;;6188539;28;20288;-79
2021/01/22 01:24:11;;;;;;;5.00;2.90;;;-1.30;99.90;;;;;;6185019;28;20283;-79
2021/01/22 01:27:13;;;;;;;3.40;2.40;;;-1.30;99.90;;;;;;6203212;28;20632;-78
2021/01/22 01:30:16;;;;;;;4.43;2.40;;;-1.20;99.90;;;;;;6169321;28;20198;-78
2021/01/22 01:33:18;;;;;;;3.27;2.17;;;-1.10;99.90;;;;;;6182840;28;20205;-80
2021/01/22 01:36:20;;;;;;;4.50;2.30;;;-1.10;99.90;;;;;;6182510;28;20607;-79
2021/01/22 01:39:22;;;;;;;3.77;2.23;;;-1.10;99.90;;;;;;6181407;28;20567;-78
2021/01/22 01:42:25;;;;;;;4.40;2.53;;;-1.10;99.90;;;;;;6182994;28;20655;-78
2021/01/22 01:45:28;;;;;;;4.77;2.87;;;-1.00;99.90;;;;;;6181986;28;20197;-78
2021/01/22 01:48:30;;;;;;;3.43;2.37;;;-1.00;99.90;;;;;;6182724;28;20233;-79
2021/01/22 01:51:32;;;;;;;7.00;2.83;;;-1.00;99.90;;;;;;6181320;28;20245;-77
2021/01/22 01:54:35;;;;;;;3.30;2.27;;;-0.90;99.90;;;;;;6183263;28;20707;-78
2021/01/22 01:57:37;;;;;;;4.27;2.47;;;-0.90;99.90;;;;;;6181652;28;20568;-78
2021/01/22 02:00:39;;;;;;;4.97;3.00;;;-0.80;99.90;;;;;;6183802;28;20210;-78
2021/01/22 02:03:42;;;;;;;4.83;2.50;;;-0.80;99.90;;;;;;6182888;28;20197;-78
2021/01/22 02:06:44;;;;;;;3.50;2.13;;;-0.80;99.90;;;;;;6181139;28;20296;-78
2021/01/22 02:09:46;;;;;;;4.13;2.50;;;-0.80;99.90;;;;;;6182276;28;20239;-78
2021/01/22 02:12:50;;;;;;;3.10;2.47;;;-0.80;99.90;;;;;;6184454;28;20212;-78
2021/01/22 02:15:52;;;;;;;3.90;2.40;;;-0.70;99.90;;;;;;6196669;28;20508;-78
2021/01/22 02:18:54;;;;;;;5.83;3.00;;;-0.70;99.90;;;;;;6201875;28;20236;-78
2021/01/22 02:21:56;;;;;;;4.27;2.20;;;-0.60;99.90;;;;;;6200664;28;20698;-78
2021/01/22 02:24:59;;;;;;;3.27;2.13;;;-0.50;99.90;;;;;;6203828;28;20289;-78
2021/01/22 02:28:04;;;;;;;2.90;2.10;;;-0.50;99.90;;;;;;6207010;28;20315;-78
2021/01/22 02:31:07;;;;;;;3.33;1.83;;;-0.50;99.90;;;;;;6212012;28;20200;-78
2021/01/22 02:34:10;;;;;;;2.63;1.80;;;-0.50;99.90;;;;;;6197625;28;20215;-78
2021/01/22 02:37:17;;;;;;;3.83;1.93;;;-0.50;99.90;;;;;;6212327;28;20208;-78
2021/01/22 02:40:20;;;;;;;2.10;1.90;;;-0.40;99.90;;;;;;6213878;28;20204;-78
2021/01/22 02:43:25;;;;;;;4.13;2.30;;;-0.40;99.90;;;;;;6213707;28;20208;-78
2021/01/22 02:46:28;;;;;;;6.10;2.83;;;-0.30;99.90;;;;;;6213808;28;20205;-78
2021/01/22 02:49:30;;;;;;;4.00;2.30;;;-0.20;99.90;;;;;;6211895;28;20255;-77
2021/01/22 02:52:32;;;;;;;2.80;1.90;;;-0.20;99.90;;;;;;6205977;28;20575;-78
2021/01/22 02:55:36;;;;;;;3.83;2.00;;;-0.10;99.90;;;;;;6204429;28;20257;-78
2021/01/22 02:58:53;;;;;;;2.33;1.53;;;0.00;99.90;;;;;;6204590;28;20287;-78
2021/01/22 03:02:18;;;;;;;4.20;1.90;;;0.00;99.90;;;;;;6208045;28;20482;-78
2021/01/22 03:05:24;;;;;;;2.43;1.70;;;0.10;99.90;;;;;;6193316;28;20339;-78
2021/01/22 03:08:28;;;;;;;4.13;1.90;;;0.10;99.90;;;;;;6210158;28;20236;-78
2021/01/22 03:11:32;;;;;;;2.27;1.90;;;0.20;99.90;;;;;;6226020;28;20319;-78
2021/01/22 03:14:35;;;;;;;2.80;1.70;;;0.20;99.90;;;;;;6201536;28;20213;-78
2021/01/22 03:17:36;;;;;;;3.73;1.80;;;0.20;99.90;;;;;;6169437;28;20216;-78
2021/01/22 03:20:41;;;;;;;3.20;1.80;;;0.30;99.90;;;;;;6183679;28;20237;-78
2021/01/22 03:23:44;;;;;;;2.50;1.80;;;0.30;99.90;;;;;;6202624;28;20220;-78
2021/01/22 03:26:45;;;;;;;1.43;1.23;;;0.40;99.90;;;;;;6187251;28;20344;-78
2021/01/22 03:29:47;;;;;;;3.30;1.50;;;0.40;99.90;;;;;;6195298;28;20247;-78
2021/01/22 03:32:49;;;;;;;2.60;1.57;;;0.40;99.90;;;;;;6211799;28;20306;-78
2021/01/22 03:35:52;;;;;;;1.93;1.20;;;0.40;99.90;;;;;;6209806;28;20706;-78
2021/01/22 03:38:56;;;;;;;2.23;1.43;;;0.50;99.90;;;;;;6211799;28;20358;-77
2021/01/22 03:42:04;;;;;;;1.93;1.33;;;0.50;99.90;;;;;;6228132;28;20221;-78
2021/01/22 03:45:07;;;;;;;2.87;1.43;;;0.50;99.90;;;;;;6208827;28;20295;-76
2021/01/22 03:48:09;;;;;;;2.20;1.50;;;0.50;99.90;;;;;;6197708;28;20846;-76
2021/01/22 03:51:11;;;;;;;3.23;1.50;;;0.50;99.90;;;;;;6177048;28;20201;-76
2021/01/22 03:54:13;;;;;;;1.67;1.30;;;0.50;99.90;;;;;;6177459;28;20324;-76
2021/01/22 03:57:15;;;;;;;1.77;1.40;;;0.60;99.90;;;;;;6177510;28;20217;-76
2021/01/22 04:00:19;;;;;;;3.67;1.30;;;0.50;99.90;;;;;;6175902;28;20212;-76
2021/01/22 04:03:20;;;;;;;1.50;1.27;;;0.50;99.90;;;;;;6160736;28;20208;-76
2021/01/22 04:06:22;;;;;;;1.23;1.10;;;0.50;99.90;;;;;;6160747;28;20678;-76
2021/01/22 04:09:24;;;;;;;1.67;1.43;;;0.50;99.90;;;;;;6161605;28;20568;-76
2021/01/22 04:12:26;;;;;;;1.90;1.20;;;0.50;99.90;;;;;;6160302;28;20244;-76
2021/01/22 04:15:28;;;;;;;2.53;1.00;;;0.50;99.90;;;;;;6176258;28;20351;-76
2021/01/22 04:18:30;;;;;;;1.23;1.10;;;0.50;99.90;;;;;;6182722;28;20220;-76
2021/01/22 04:21:31;;;;;;;1.57;1.20;;;0.50;99.90;;;;;;6203019;28;20232;-76
2021/01/22 04:24:33;;;;;;;1.13;1.00;;;0.40;99.90;;;;;;6201600;28;20260;-76
2021/01/22 04:27:35;;;;;;;1.30;1.00;;;0.40;99.90;;;;;;6200979;28;20305;-76
2021/01/22 04:30:37;;;;;;;1.50;0.90;;;0.50;99.90;;;;;;6200752;28;20196;-76
2021/01/22 04:33:39;;;;;;;1.43;0.90;;;0.50;99.90;;;;;;6200150;28;20228;-76
2021/01/22 04:36:41;;;;;;;1.00;0.73;;;0.60;99.90;;;;;;6199388;28;20204;-76
2021/01/22 04:39:43;;;;;;;2.20;0.73;;;0.60;99.90;;;;;;6200124;28;20204;-76
2021/01/22 04:42:45;;;;;;;1.83;1.00;;;0.60;99.90;;;;;;6200362;28;20246;-76
2021/01/22 04:45:47;;;;;;;2.87;0.80;;;0.60;99.90;;;;;;6200182;28;20290;-76
2021/01/22 04:48:49;;;;;;;0.90;0.70;;;0.60;99.90;;;;;;6199402;28;20315;-76
2021/01/22 04:51:52;;;;;;;0.93;0.90;;;0.60;99.90;;;;;;6199972;28;20220;-76
2021/01/22 04:54:57;;;;;;;1.27;1.03;;;0.70;99.90;;;;;;6217471;28;20205;-76
2021/01/22 04:58:03;;;;;;;1.33;0.90;;;0.70;99.90;;;;;;6199530;28;20585;-76
2021/01/22 05:01:05;;;;;;;1.17;0.80;;;0.70;99.90;;;;;;6199912;28;20200;-76
2021/01/22 05:04:07;;;;;;;1.13;0.70;;;0.70;99.90;;;;;;6199286;28;20223;-76
2021/01/22 05:07:12;;;;;;;0.90;0.70;;;0.80;99.90;;;;;;6199824;28;20210;-76
2021/01/22 05:10:15;;;;;;;2.27;0.70;;;0.80;99.90;;;;;;6199953;28;20236;-76
2021/01/22 05:13:16;;;;;;;3.47;0.70;;;0.80;99.90;;;;;;6196713;28;20259;-76
2021/01/22 05:16:18;;;;;;;0.83;0.60;;;0.80;99.90;;;;;;6175264;28;20204;-76
2021/01/22 05:19:21;;;;;;;1.10;1.00;;;0.90;99.90;;;;;;6179677;28;20607;-76
2021/01/22 05:22:23;;;;;;;2.10;0.70;;;0.90;99.90;;;;;;6161698;28;20208;-76
2021/01/22 05:25:25;;;;;;;3.60;0.70;;;0.90;99.90;;;;;;6160456;28;20313;-76
2021/01/22 05:28:47;;;;;;;1.00;0.60;;;1.00;99.90;;;;;;6178163;28;20248;-76
2021/01/22 05:31:49;;;;;;;1.27;0.60;;;1.00;99.90;;;;;;6180115;28;20226;-77
2021/01/22 05:34:51;;;;;;;0.93;0.70;;;1.00;99.90;;;;;;6183355;28;20560;-77
2021/01/22 05:37:53;;;;;;;0.70;0.40;;;1.00;99.90;;;;;;6183902;28;20197;-76
2021/01/22 05:40:58;;;;;;;0.70;0.50;;;1.00;99.90;;;;;;6199051;28;20295;-76
2021/01/22 05:43:59;;;;;;;0.93;0.70;;;1.10;99.90;;;;;;6199571;28;20318;-76
2021/01/22 05:47:09;;;;;;;0.70;0.50;;;1.10;99.90;;;;;;6207754;28;21705;-76
2021/01/22 05:50:12;;;;;;;2.53;0.50;;;1.20;99.90;;;;;;6184313;28;20235;-76
2021/01/22 05:53:16;;;;;;;1.90;0.50;;;1.20;99.90;;;;;;6199758;28;20705;-76
2021/01/22 05:56:19;;;;;;;1.60;0.47;;;1.20;99.90;;;;;;6198614;28;20709;-76
2021/01/22 05:59:21;;;;;;;0.33;0.33;;;1.20;99.90;;;;;;6203181;28;20276;-76
2021/01/22 06:02:29;;;;;;;0.50;0.50;;;1.20;99.90;;;;;;6204952;28;20342;-76
2021/01/22 06:05:31;;;;;;;0.80;0.50;;;1.20;99.90;;;;;;6203477;28;20200;-76
2021/01/22 06:08:46;;;;;;;0.30;0.30;;;1.30;99.90;;;;;;6203488;28;20402;-76
2021/01/22 06:11:48;;;;;;;0.40;0.40;;;1.30;99.90;;;;;;6203883;28;20315;-76
2021/01/22 06:14:50;;;;;;;0.50;0.50;;;1.30;99.90;;;;;;6195110;28;20266;-76
2021/01/22 06:17:53;;;;;;;1.07;0.43;;;1.30;99.90;;;;;;6181530;28;20295;-76
2021/01/22 06:21:09;;;;;;;1.83;0.43;;;1.40;99.90;;;;;;6203336;28;20254;-76
2021/01/22 06:24:11;;;;;;;0.60;0.40;;;1.40;99.90;;;;;;6220434;28;20262;-77
2021/01/22 06:27:13;;;;;;;1.00;0.60;;;1.50;99.90;;;;;;6203764;28;20688;-77
2021/01/22 06:30:16;;;;;;;0.73;0.50;;;1.50;99.90;;;;;;6219079;28;20600;-77
2021/01/22 06:33:20;;;;;;;1.80;0.50;;;1.50;99.90;;;;;;6203739;28;20240;-77
2021/01/22 06:36:23;;;;;;;1.60;0.43;;;1.50;99.90;;;;;;6203961;28;20204;-76
2021/01/22 06:39:25;;;;;;;0.60;0.40;;;1.50;99.90;;;;;;6204151;28;20204;-77
2021/01/22 06:42:27;;;;;;;0.30;0.30;;;1.50;99.90;;;;;;6202176;28;20232;-76
2021/01/22 06:45:29;;;;;;;0.33;0.33;;;1.60;99.90;;;;;;6186058;28;20205;-77
2021/01/22 06:48:50;;;;;;;1.13;0.40;;;1.60;99.90;;;;;;6196108;28;20302;-77
2021/01/22 06:52:11;;;;;;;0.40;0.30;;;1.60;99.90;;;;;;6179154;28;20340;-76
2021/01/22 06:55:13;;;;;;;0.43;0.33;;;1.70;99.90;;;;;;6178008;28;20237;-76
2021/01/22 06:58:35;;;;;;;0.80;0.50;;;1.70;99.90;;;;;;6179585;28;20686;-76
2021/01/22 07:01:37;;;;;;;1.50;0.37;;;1.80;99.90;;;;;;6162437;28;20209;-77
2021/01/22 07:04:42;;;;;;;0.40;0.20;;;1.80;99.90;;;;;;6195070;28;20292;-76
2021/01/22 07:07:48;;;;;;;0.80;0.40;;;1.80;99.90;;;;;;6178569;28;20319;-77
2021/01/22 07:10:57;;;;;;;0.20;0.20;;;1.70;99.90;;;;;;6177653;28;20675;-77
2021/01/22 07:13:59;;;;;;;0.83;0.40;;;1.70;99.90;;;;;;6201865;28;20240;-77
2021/01/22 07:17:02;;;;;;;2.10;0.60;;;1.80;99.90;;;;;;6202607;28;20619;-76
2021/01/22 07:20:09;;;;;;;0.40;0.40;;;1.80;99.90;;;;;;6201793;28;20228;-76
2021/01/22 07:23:15;;;;;;;0.97;0.30;;;1.90;99.90;;;;;;6202265;28;20516;-76
2021/01/22 07:26:17;;;;;;;0.30;0.30;;;2.00;99.90;;;;;;6201747;28;20224;-76
2021/01/22 07:29:23;;;;;;;0.40;0.40;;;2.00;99.90;;;;;;6201522;28;20591;-76
2021/01/22 07:32:28;;;;;;;0.80;0.40;;;2.00;99.90;;;;;;6194344;28;20240;-76
2021/01/22 07:35:30;;;;;;;1.80;0.30;;;2.10;99.90;;;;;;6178699;28;20521;-76
2021/01/22 07:38:37;;;;;;;0.63;0.43;;;2.10;99.90;;;;;;6178049;28;20209;-77
2021/01/22 07:41:39;;;;;;;0.50;0.50;;;2.10;99.90;;;;;;6176695;28;20198;-76
2021/01/22 07:44:43;;;;;;;2.10;0.60;;;2.20;99.90;;;;;;6180118;28;20216;-76
2021/01/22 07:47:46;;;;;;;0.53;0.40;;;2.20;99.90;;;;;;6176963;28;20233;-77
2021/01/22 07:50:49;;;;;;;0.50;0.50;;;2.20;99.90;;;;;;6182174;28;20658;-79
2021/01/22 07:54:01;;;;;;;1.90;0.40;;;2.20;99.90;;;;;;6182458;28;20193;-77
2021/01/22 07:57:03;;;;;;;0.80;0.60;;;2.20;99.90;;;;;;6161542;28;20710;-77
2021/01/22 08:00:07;;;;;;;2.00;0.70;;;2.20;99.90;;;;;;6177667;28;20201;-77
2021/01/22 08:03:13;;;;;;;0.60;0.40;;;2.30;99.90;;;;;;6178501;28;20790;-76
2021/01/22 08:06:15;;;;;;;0.63;0.60;;;2.30;99.90;;;;;;6161451;28;20300;-77
2021/01/22 08:09:18;;;;;;;0.77;0.60;;;2.30;99.90;;;;;;6176266;28;20277;-77
2021/01/22 08:12:20;;;;;;;0.90;0.40;;;2.30;99.90;;;;;;6177218;28;20205;-76
2021/01/22 08:15:23;;;;;;;0.73;0.60;;;2.40;99.90;;;;;;6176708;28;20275;-77
2021/01/22 08:18:25;;;;;;;0.60;0.60;;;2.40;99.90;;;;;;6182011;28;20370;-77
2021/01/22 08:21:31;;;;;;;0.83;0.60;;;2.50;99.90;;;;;;6200944;28;20319;-77
2021/01/22 08:24:34;;;;;;;1.10;0.40;;;2.50;99.90;;;;;;6201674;28;20761;-76
2021/01/22 08:27:36;;;;;;;0.50;0.50;;;2.50;99.90;;;;;;6201643;28;20232;-77
2021/01/22 08:30:40;;;;;;;0.80;0.60;;;2.60;99.90;;;;;;6201126;28;20290;-77
2021/01/22 08:33:42;;;;;;;2.53;0.70;;;2.60;99.90;;;;;;6189673;28;20224;-77
2021/01/22 08:36:44;;;;;;;1.30;0.60;;;2.60;99.90;;;;;;6178285;28;20208;-77
2021/01/22 08:39:59;;;;;;;0.70;0.40;;;2.60;99.90;;;;;;6161588;28;20197;-77
2021/01/22 08:43:06;;;;;;;2.40;0.70;;;2.70;99.90;;;;;;6176632;28;20743;-77
2021/01/22 08:46:11;;;;;;;1.67;0.60;;;2.70;99.90;;;;;;6177258;28;20220;-77
2021/01/22 08:49:14;;;;;;;0.67;0.60;;;2.60;99.90;;;;;;6189921;28;20311;-77
2021/01/22 08:52:16;;;;;;;1.00;0.60;;;2.70;99.90;;;;;;6200768;28;20623;-77
2021/01/22 08:55:22;;;;;;;2.97;0.70;;;2.70;99.90;;;;;;6202260;28;20212;-76
2021/01/22 08:58:23;;;;;;;1.00;0.70;;;2.70;99.90;;;;;;6201375;28;20299;-77
2021/01/22 09:01:58;;;;;;;1.10;0.63;;;2.70;99.90;;;;;;6199711;28;20712;-77
2021/01/22 09:05:05;;;;;;;3.07;0.70;;;2.70;99.90;;;;;;6216454;28;20267;-77
2021/01/22 09:08:08;;;;;;;1.00;0.60;;;2.70;99.90;;;;;;6199888;28;20235;-77
2021/01/22 09:11:10;;;;;;;1.03;0.90;;;2.70;99.90;;;;;;6200728;28;20220;-77
2021/01/22 09:14:13;;;;;;;3.43;1.10;;;2.70;99.90;;;;;;6192458;28;20664;-77
2021/01/22 09:17:23;;;;;;;1.03;0.70;;;2.80;99.90;;;;;;6176385;28;20216;-77
2021/01/22 09:20:29;;;;;;;0.80;0.70;;;2.80;99.90;;;;;;6176552;28;20236;-77
2021/01/22 09:23:32;;;;;;;0.60;0.50;;;2.90;99.90;;;;;;6175820;28;20292;-76
2021/01/22 09:26:33;;;;;;;1.30;0.70;;;2.90;99.90;;;;;;6159554;28;20224;-77
2021/01/22 09:29:36;;;;;;;2.57;0.70;;;3.00;99.90;;;;;;6180338;28;20709;-76
2021/01/22 09:32:39;;;;;;;1.03;0.77;;;3.20;99.90;;;;;;6200301;28;20208;-76
2021/01/22 09:35:41;;;;;;;0.70;0.70;;;3.30;99.90;;;;;;6204826;28;20221;-76
2021/01/22 09:38:43;;;;;;;0.93;0.80;;;3.40;99.90;;;;;;6204061;28;20201;-76
2021/01/22 09:41:45;;;;;;;0.50;0.50;;;3.50;99.90;;;;;;6205158;28;20204;-76
2021/01/22 09:44:47;;;;;;;1.50;0.70;;;3.60;99.90;;;;;;6204479;28;20208;-76
2021/01/22 09:47:49;;;;;;;2.20;0.80;;;3.70;99.90;;;;;;6202394;28;20208;-77
2021/01/22 09:50:51;;;;;;;2.13;0.83;;;3.80;99.90;;;;;;6180155;28;20205;-77
2021/01/22 09:53:53;;;;;;;1.60;0.70;;;3.80;99.90;;;;;;6179343;28;20726;-77
2021/01/22 09:56:55;;;;;;;2.20;0.80;;;3.90;99.90;;;;;;6179585;28;20209;-77
2021/01/22 09:59:57;;;;;;;1.47;0.60;;;3.90;99.90;;;;;;6179754;28;20205;-77
2021/01/22 10:02:59;;;;;;;0.50;0.50;;;3.90;99.90;;;;;;6179960;28;20237;-77
2021/01/22 10:06:01;;;;;;;2.43;0.40;;;3.80;99.90;;;;;;6179835;28;20205;-77
2021/01/22 10:09:04;;;;;;;0.83;0.60;;;3.80;99.90;;;;;;6178916;28;20229;-77
2021/01/22 10:12:07;;;;;;;2.17;0.73;;;3.80;99.90;;;;;;6179735;28;20229;-77
2021/01/22 10:15:10;;;;;;;0.77;0.53;;;3.90;99.90;;;;;;6178838;28;20705;-79
2021/01/22 10:18:13;;;;;;;0.63;0.57;;;4.00;99.90;;;;;;6184055;28;20204;-77
2021/01/22 10:21:17;;;;;;;1.27;0.67;;;4.20;99.90;;;;;;6203982;28;20224;-77
2021/01/22 10:24:19;;;;;;;2.33;0.70;;;4.40;99.90;;;;;;6203550;28;20237;-77
2021/01/22 10:27:21;;;;;;;0.80;0.50;;;4.70;99.90;;;;;;6202272;28;20337;-78
2021/01/22 10:30:22;;;;;;;0.73;0.60;;;4.80;99.90;;;;;;6217688;28;20283;-77
2021/01/22 10:33:24;;;;;;;0.33;0.30;;;4.90;99.90;;;;;;6202303;28;20208;-78
2021/01/22 10:36:26;;;;;;;1.67;0.70;;;5.00;99.90;;;;;;6202804;28;20213;-78
2021/01/22 10:39:28;;;;;;;0.70;0.50;;;5.10;99.90;;;;;;6202994;28;20209;-77
2021/01/22 10:42:30;;;;;;;3.00;0.40;;;5.30;99.90;;;;;;6202841;28;20670;-78
2021/01/22 10:45:32;;;;;;;0.83;0.40;;;5.40;99.90;;;;;;6201191;28;20238;-77
2021/01/22 10:48:34;;;;;;;0.60;0.40;;;5.60;99.90;;;;;;6201110;28;20719;-77
2021/01/22 10:51:37;;;;;;;0.33;0.30;;;5.80;99.90;;;;;;6201952;28;20235;-77
2021/01/22 10:54:39;;;;;;;0.67;0.43;;;6.00;99.90;;;;;;6201272;28;20666;-77
2021/01/22 10:57:41;;;;;;;0.70;0.30;;;6.20;99.90;;;;;;6201712;28;20226;-78
2021/01/22 11:00:42;;;;;;;0.40;0.37;;;6.40;99.90;;;;;;6184066;28;20701;-77
2021/01/22 11:03:45;;;;;;;0.30;0.30;;;6.40;99.90;;;;;;6201915;28;20282;-78
2021/01/22 11:06:46;;;;;;;0.30;0.30;;;6.30;99.90;;;;;;6202610;28;20218;-77
2021/01/22 11:09:48;;;;;;;0.63;0.40;;;6.20;99.90;;;;;;6201346;28;20239;-77
2021/01/22 11:12:50;;;;;;;1.50;0.30;;;6.20;99.90;;;;;;6200496;28;20203;-77
2021/01/22 11:15:52;;;;;;;0.37;0.30;;;6.20;99.90;;;;;;6192863;28;20251;-78
2021/01/22 11:18:54;;;;;;;0.80;0.40;;;6.30;99.90;;;;;;6178117;28;20212;-77
2021/01/22 11:21:56;;;;;;;1.00;0.50;;;6.30;99.90;;;;;;6176739;28;20235;-77
2021/01/22 11:24:58;;;;;;;0.30;0.30;;;6.40;99.90;;;;;;6177549;28;20213;-77
2021/01/22 11:28:00;;;;;;;0.40;0.30;;;6.60;99.90;;;;;;6152374;28;736184;-78
2021/01/22 11:31:02;;;;;;;0.70;0.30;;;6.80;99.90;;;;;;6184304;28;20208;-77
2021/01/22 11:34:04;;;;;;;0.53;0.33;;;7.00;99.90;;;;;;6202474;28;20199;-77
2021/01/22 11:37:06;;;;;;;0.83;0.50;;;7.30;99.90;;;;;;6203604;28;20282;-77
2021/01/22 11:40:09;;;;;;;0.43;0.37;;;7.40;99.90;;;;;;6201508;28;20204;-77
2021/01/22 11:43:11;;;;;;;0.50;0.40;;;7.60;99.90;;;;;;6201738;28;20201;-77
2021/01/22 11:46:13;;;;;;;0.93;0.30;;;7.80;99.90;;;;;;6201171;28;20654;-77
2021/01/22 11:49:17;;;;;;;0.50;0.50;;;8.00;99.90;;;;;;6189166;28;20247;-77
2021/01/22 11:52:19;;;;;;;1.03;0.60;;;8.10;99.90;;;;;;6177353;28;20215;-76
2021/01/22 11:55:21;;;;;;;1.13;0.80;;;8.30;99.90;;;;;;6177286;28;20757;-77
2021/01/22 11:58:22;;;;;;;0.77;0.50;;;8.50;99.90;;;;;;6181483;28;20946;-77
2021/01/22 12:01:24;;;;;;;0.77;0.47;;;8.70;99.90;;;;;;6176623;28;20212;-77
2021/01/22 12:04:27;;;;;;;0.67;0.50;;;9.00;99.90;;;;;;6177139;28;20766;-75
2021/01/22 12:07:29;;;;;;;0.67;0.40;;;9.20;99.90;;;;;;6192746;28;20218;-75
2021/01/22 12:10:30;;;;;;;2.10;0.50;;;9.40;99.90;;;;;;6176938;28;20309;-75
2021/01/22 12:13:32;;;;;;;1.87;0.60;;;9.60;99.90;;;;;;6176308;28;20208;-75
2021/01/22 12:16:34;;;;;;;0.97;0.57;;;9.80;99.90;;;;;;6176737;28;20204;-77
2021/01/22 12:19:36;;;;;;;1.77;0.70;;;9.90;99.90;;;;;;6176457;28;20225;-77
2021/01/22 12:22:38;;;;;;;0.90;0.60;;;10.10;99.90;;;;;;6161559;28;20341;-75
2021/01/22 12:25:45;;;;;;;0.40;0.40;;;10.30;99.90;;;;;;6160220;28;20628;-76
2021/01/22 12:28:49;;;;;;;0.43;0.43;;;10.40;99.90;;;;;;6176311;28;20321;-75
2021/01/22 12:31:51;;;;;;;0.37;0.37;;;10.50;99.90;;;;;;6176381;28;20233;-75
2021/01/22 12:34:53;;;;;;;1.07;0.47;;;10.50;99.90;;;;;;6176331;28;20287;-75
2021/01/22 12:37:55;;;;;;;1.70;0.50;;;10.70;99.90;;;;;;6175225;28;20219;-75
2021/01/22 12:40:57;;;;;;;3.67;1.10;;;11.00;99.90;;;;;;6176056;28;20338;-75
2021/01/22 12:43:59;;;;;;;5.17;1.63;;;11.30;99.90;;;;;;6175915;28;20233;-75
2021/01/22 12:47:01;;;;;;;2.33;1.33;;;11.80;99.90;;;;;;6176359;28;20349;-75
2021/01/22 12:50:03;;;;;;;2.07;0.83;;;12.30;99.90;;;;;;6186273;28;20241;-75
2021/01/22 12:53:06;;;;;;;18.73;6.20;;;12.70;99.90;;;;;;6176556;28;20209;-75
2021/01/22 12:56:08;;;;;;;10.00;3.67;;;13.20;99.90;;;;;;6175763;28;20209;-75
2021/01/22 12:59:09;;;;;;;3.53;1.20;;;13.50;99.90;;;;;;6176234;28;20259;-75
2021/01/22 13:02:11;;;;;;;3.40;1.23;;;13.90;99.00;;;;;;6180430;28;20258;-75
2021/01/22 13:05:14;;;;;;;4.47;1.50;;;14.10;98.10;;;;;;6199579;28;20255;-75
2021/01/22 13:08:16;;;;;;;15.27;4.07;;;14.50;96.30;;;;;;6200705;28;20295;-75
2021/01/22 13:11:18;;;;;;;9.53;3.57;;;14.70;94.20;;;;;;6201026;28;20213;-75
2021/01/22 13:14:20;;;;;;;10.83;3.73;;;15.00;92.70;;;;;;6191164;28;20213;-75
2021/01/22 13:17:22;;;;;;;7.87;2.10;;;15.10;93.20;;;;;;6175808;28;20209;-75
2021/01/22 13:20:25;;;;;;;9.73;1.90;;;15.10;92.60;;;;;;6188478;28;20258;-75
2021/01/22 13:23:30;;;;;;;29.87;7.13;;;15.00;92.00;;;;;;6191583;28;20202;-75
2021/01/22 13:26:32;;;;;;;9.13;2.70;;;14.80;91.40;;;;;;6192018;28;20773;-75
2021/01/22 13:40:53;;;;;;;0.60;0.40;;;16.80;99.90;;;;;;6168235;27;62198;-47
2021/01/22 13:43:55;;;;;;;8.83;0.87;;;18.60;99.90;;;;;;6167474;28;20271;-36
2021/01/22 13:46:57;;;;;;;1.57;0.43;;;23.00;89.40;;;;;;6128329;28;20228;-35
2021/01/22 13:49:59;;;;;;;0.20;0.20;;;21.10;90.20;;;;;;5975300;28;61585;-36
2021/01/22 13:53:45;;;;;;;0.20;0.20;;;20.00;93.40;;;;;;6202772;27;64345;-33
2021/01/22 13:56:48;;;;;;;0.20;0.20;;;19.70;95.50;;;;;;6249432;28;20673;-34
2021/01/22 13:59:50;;;;;;;0.20;0.20;;;19.60;96.50;;;;;;6261680;28;20211;-35
2021/01/22 14:02:53;;;;;;;0.10;0.10;;;19.50;97.00;;;;;;6204671;28;20261;-45
2021/01/22 14:05:55;;;;;;;0.20;0.20;;;19.50;96.80;;;;;;6250204;28;20573;-44
